createdAt,value
2022-09-23T00:00:30.993Z,4.20
2022-09-23T00:03:00.034Z,4.37
2022-09-23T00:05:31.147Z,4.17
2022-09-23T00:08:00.638Z,4.08
2022-09-23T00:10:31.226Z,4.60
2022-09-23T00:13:02.630Z,4.15
2022-09-23T00:15:33.982Z,3.90
2022-09-23T00:18:03.745Z,4.42
2022-09-23T00:20:36.128Z,4.35
2022-09-23T00:23:07.212Z,4.40
2022-09-23T00:25:37.094Z,4.05
2022-09-23T00:28:06.319Z,4.28
2022-09-23T00:30:36.020Z,4.12
2022-09-23T00:33:04.969Z,4.37
2022-09-23T00:35:33.843Z,4.15
2022-09-23T00:38:02.882Z,3.70
2022-09-23T00:40:32.404Z,3.95
2022-09-23T00:43:01.769Z,4.53
2022-09-23T00:45:32.346Z,4.28
2022-09-23T00:48:02.815Z,4.03
2022-09-23T00:50:38.282Z,4.12
2022-09-23T00:53:11.580Z,3.98
2022-09-23T00:55:46.162Z,4.37
2022-09-23T00:58:18.529Z,4.53
2022-09-23T01:00:47.507Z,4.50
2022-09-23T01:03:16.498Z,4.22
2022-09-23T01:05:45.388Z,4.60
2022-09-23T01:08:14.369Z,4.40
2022-09-23T01:11:11.577Z,5.00
2022-09-23T01:14:06.966Z,4.85
2022-09-23T01:16:56.508Z,4.65
2022-09-23T01:19:43.392Z,3.80
2022-09-23T01:22:27.391Z,3.95
2022-09-23T01:25:01.882Z,4.30
2022-09-23T01:27:52.478Z,4.28
2022-09-23T01:30:46.930Z,4.15
2022-09-23T01:33:33.429Z,3.85
2022-09-23T01:36:19.105Z,4.37
2022-09-23T01:39:29.486Z,4.42
2022-09-23T01:42:35.675Z,4.55
2022-09-23T01:45:15.944Z,4.45
2022-09-23T01:47:54.860Z,4.50
2022-09-23T01:50:47.196Z,4.53
2022-09-23T01:53:37.990Z,4.40
2022-09-23T01:56:14.942Z,4.25
2022-09-23T01:59:02.193Z,4.35
2022-09-23T02:01:42.533Z,4.50
2022-09-23T02:04:30.571Z,4.60
2022-09-23T02:07:05.269Z,4.87
2022-09-23T02:09:42.711Z,5.03
2022-09-23T02:12:17.364Z,4.55
2022-09-23T02:15:07.404Z,4.58
2022-09-23T02:17:48.329Z,4.17
2022-09-23T02:20:22.149Z,4.25
2022-09-23T02:23:06.303Z,4.80
2022-09-23T02:26:00.261Z,4.03
2022-09-23T02:28:46.921Z,4.60
2022-09-23T02:31:39.212Z,4.42
2022-09-23T02:34:37.255Z,4.90
2022-09-23T02:37:29.594Z,4.67
2022-09-23T02:40:15.670Z,4.70
2022-09-23T02:43:08.056Z,4.67
2022-09-23T02:45:39.343Z,4.50
2022-09-23T02:48:22.171Z,4.58
2022-09-23T02:50:51.693Z,4.30
2022-09-23T02:53:23.730Z,4.65
2022-09-23T02:55:52.449Z,4.55
2022-09-23T02:58:21.318Z,4.40
2022-09-23T03:01:07.796Z,4.60
2022-09-23T03:04:11.392Z,4.37
2022-09-23T03:07:30.209Z,4.65
2022-09-23T03:10:15.189Z,4.30
2022-09-23T03:13:10.446Z,4.58
2022-09-23T03:16:24.884Z,5.05
2022-09-23T03:19:17.407Z,4.78
2022-09-23T03:22:02.314Z,4.50
2022-09-23T03:24:32.593Z,4.83
2022-09-23T03:27:08.850Z,4.10
2022-09-23T03:29:38.517Z,4.58
2022-09-23T03:32:08.484Z,5.17
2022-09-23T03:34:39.314Z,4.40
2022-09-23T03:37:31.989Z,4.83
2022-09-23T03:40:23.606Z,4.35
2022-09-23T03:42:53.337Z,4.65
2022-09-23T03:45:26.483Z,4.55
2022-09-23T03:47:56.024Z,4.35
2022-09-23T03:50:25.085Z,7.10
2022-09-23T03:52:54.404Z,7.83
2022-09-23T03:55:24.740Z,7.97
2022-09-23T03:57:53.530Z,6.08
2022-09-23T04:00:23.328Z,4.50
2022-09-23T04:02:53.347Z,4.10
2022-09-23T04:05:22.186Z,4.40
2022-09-23T04:07:52.026Z,4.03
2022-09-23T04:10:21.081Z,4.05
2022-09-23T04:12:50.297Z,4.37
2022-09-23T04:15:19.693Z,4.15
2022-09-23T04:17:49.501Z,3.87
2022-09-23T04:20:18.828Z,4.25
2022-09-23T04:22:47.919Z,4.50
2022-09-23T04:25:17.307Z,5.50
2022-09-23T04:27:46.339Z,4.10
2022-09-23T04:30:15.574Z,3.80
2022-09-23T04:32:44.544Z,4.50
2022-09-23T04:35:14.381Z,4.90
2022-09-23T04:37:43.778Z,4.97
2022-09-23T04:40:15.491Z,4.83
2022-09-23T04:42:45.051Z,5.33
2022-09-23T04:45:15.561Z,4.67
2022-09-23T04:47:45.588Z,4.97
2022-09-23T04:50:16.424Z,5.17
2022-09-23T04:52:45.845Z,4.75
2022-09-23T04:55:14.718Z,5.33
2022-09-23T04:57:44.251Z,5.20
2022-09-23T05:00:15.071Z,4.95
2022-09-23T05:02:46.331Z,4.95
2022-09-23T05:05:18.236Z,5.25
2022-09-23T05:07:51.877Z,4.80
2022-09-23T05:10:22.612Z,4.97
2022-09-23T05:12:56.932Z,4.78
2022-09-23T05:15:23.186Z,6.00
2022-09-23T05:17:52.919Z,5.42
2022-09-23T05:20:22.160Z,5.60
2022-09-23T05:22:53.463Z,4.97
2022-09-23T05:25:23.658Z,5.58
2022-09-23T05:27:52.977Z,5.22
2022-09-23T05:30:22.658Z,5.03
2022-09-23T05:32:52.374Z,4.78
2022-09-23T05:35:21.866Z,4.60
2022-09-23T05:37:52.882Z,4.92
2022-09-23T05:40:21.947Z,5.08
2022-09-23T05:42:51.103Z,5.00
2022-09-23T05:45:21.564Z,4.62
2022-09-23T05:47:50.427Z,4.80
2022-09-23T05:50:19.366Z,4.58
2022-09-23T05:52:48.764Z,7.80
2022-09-23T05:55:18.119Z,5.10
2022-09-23T05:57:47.193Z,4.50
2022-09-23T06:00:17.133Z,4.95
2022-09-23T06:02:48.973Z,4.72
2022-09-23T06:05:18.425Z,4.70
2022-09-23T06:07:48.314Z,5.47
2022-09-23T06:10:17.313Z,4.47
2022-09-23T06:12:46.752Z,4.70
2022-09-23T06:15:17.191Z,3.92
2022-09-23T06:17:48.509Z,3.80
2022-09-23T06:20:17.922Z,3.33
2022-09-23T06:22:51.913Z,3.98
2022-09-23T06:25:19.402Z,4.12
2022-09-23T06:27:55.319Z,4.03
2022-09-23T06:30:26.273Z,4.03
2022-09-23T06:32:57.649Z,3.92
2022-09-23T06:35:27.952Z,5.28
2022-09-23T06:37:57.809Z,5.28
2022-09-23T06:40:26.785Z,6.67
2022-09-23T06:43:02.587Z,5.35
2022-09-23T06:45:34.053Z,4.78
2022-09-23T06:48:05.259Z,5.20
2022-09-23T06:50:34.401Z,4.80
2022-09-23T06:53:03.813Z,6.08
2022-09-23T06:55:34.863Z,5.92
2022-09-23T06:58:04.295Z,5.00
2022-09-23T07:00:34.894Z,5.12
2022-09-23T07:03:08.566Z,5.60
2022-09-23T07:05:38.573Z,6.72
2022-09-23T07:08:11.514Z,6.62
2022-09-23T07:10:41.225Z,5.80
2022-09-23T07:13:15.541Z,5.80
2022-09-23T07:15:42.097Z,5.47
2022-09-23T07:18:12.705Z,6.25
2022-09-23T07:20:42.301Z,5.22
2022-09-23T07:23:11.307Z,5.37
2022-09-23T07:25:42.870Z,5.70
2022-09-23T07:28:12.165Z,5.33
2022-09-23T07:30:51.446Z,4.97
2022-09-23T07:33:25.599Z,5.60
2022-09-23T07:35:43.954Z,5.28
2022-09-23T07:38:13.331Z,5.65
2022-09-23T07:40:45.418Z,6.45
2022-09-23T07:43:14.751Z,6.00
2022-09-23T07:45:45.418Z,5.62
2022-09-23T07:48:15.549Z,4.58
2022-09-23T07:50:45.007Z,3.22
2022-09-23T07:53:15.423Z,3.50
2022-09-23T07:55:54.024Z,2.80
2022-09-23T07:58:23.469Z,3.20
2022-09-23T08:00:53.837Z,3.00
2022-09-23T08:03:23.111Z,2.58
2022-09-23T08:05:53.682Z,3.17
2022-09-23T08:08:23.383Z,2.00
2022-09-23T08:10:52.172Z,2.05
2022-09-23T08:13:21.256Z,1.50
2022-09-23T08:15:55.247Z,1.60
2022-09-23T08:18:21.634Z,1.60
2022-09-23T08:20:51.128Z,1.60
2022-09-23T08:23:20.881Z,1.85
2022-09-23T08:25:59.780Z,1.67
2022-09-23T08:28:29.108Z,1.47
2022-09-23T08:30:58.226Z,1.65
2022-09-23T08:33:28.148Z,2.50
2022-09-23T08:36:02.253Z,2.20
2022-09-23T08:38:30.897Z,1.67
2022-09-23T08:41:37.172Z,2.20
2022-09-23T08:44:24.810Z,2.58
2022-09-23T08:47:21.144Z,2.87
2022-09-23T08:50:01.271Z,2.65
2022-09-23T08:52:39.149Z,3.42
2022-09-23T08:55:12.100Z,3.33
2022-09-23T08:58:26.711Z,3.58
2022-09-23T09:01:23.778Z,3.50
2022-09-23T09:04:09.438Z,3.98
2022-09-23T09:06:53.014Z,3.52
2022-09-23T09:09:26.039Z,3.30
2022-09-23T09:12:01.834Z,3.62
2022-09-23T09:14:45.814Z,3.05
2022-09-23T09:17:31.737Z,3.50
2022-09-23T09:20:57.869Z,3.60
2022-09-23T09:23:38.408Z,3.80
2022-09-23T09:26:12.247Z,4.10
2022-09-23T09:28:52.544Z,3.90
2022-09-23T09:31:35.759Z,4.87
2022-09-23T09:34:15.672Z,3.65
2022-09-23T09:36:57.672Z,4.17
2022-09-23T09:39:30.609Z,3.50
2022-09-23T09:42:00.577Z,3.55
2022-09-23T09:44:53.349Z,3.52
2022-09-23T09:47:46.762Z,3.55
2022-09-23T09:50:39.892Z,4.03
2022-09-23T09:53:25.999Z,3.72
2022-09-23T09:56:08.942Z,4.45
2022-09-23T09:58:54.015Z,4.30
2022-09-23T10:01:29.777Z,4.85
2022-09-23T10:04:04.646Z,4.50
2022-09-23T10:06:35.382Z,5.28
2022-09-23T10:09:16.702Z,5.40
2022-09-23T10:12:10.926Z,4.40
2022-09-23T10:14:39.877Z,5.00
2022-09-23T10:17:21.377Z,5.35
2022-09-23T10:19:56.583Z,4.85
2022-09-23T10:22:29.731Z,5.97
2022-09-23T10:25:03.463Z,5.17
2022-09-23T10:27:34.649Z,5.55
2022-09-23T10:30:24.169Z,4.90
2022-09-23T10:32:54.557Z,4.40
2022-09-23T10:35:26.343Z,3.92
2022-09-23T10:38:01.515Z,3.42
2022-09-23T10:40:57.725Z,2.20
2022-09-23T10:44:11.485Z,2.52
2022-09-23T10:46:46.684Z,3.20
2022-09-23T10:49:27.245Z,3.20
2022-09-23T10:52:38.848Z,3.90
2022-09-23T10:55:42.130Z,2.83
2022-09-23T10:58:51.802Z,3.58
2022-09-23T11:01:53.044Z,3.27
2022-09-23T11:04:53.787Z,3.75
2022-09-23T11:08:04.091Z,3.67
2022-09-23T11:10:51.886Z,3.37
2022-09-23T11:13:38.332Z,4.22
2022-09-23T11:16:38.611Z,4.00
2022-09-23T11:19:34.234Z,3.75
2022-09-23T11:22:20.610Z,4.10
2022-09-23T11:25:16.438Z,5.20
2022-09-23T11:28:19.449Z,3.83
2022-09-23T11:31:24.400Z,2.50
2022-09-23T11:33:59.455Z,2.25
2022-09-23T11:36:41.266Z,2.70
2022-09-23T11:39:29.737Z,2.60
2022-09-23T11:41:59.960Z,2.52
2022-09-23T11:44:42.697Z,2.80
2022-09-23T11:47:30.176Z,2.60
2022-09-23T11:50:27.949Z,2.60
2022-09-23T11:53:24.981Z,2.17
2022-09-23T11:56:04.103Z,1.50
2022-09-23T11:58:43.473Z,1.37
2022-09-23T12:01:37.204Z,1.40
2022-09-23T12:04:32.129Z,1.40
2022-09-23T12:07:14.908Z,1.32
2022-09-23T12:10:05.487Z,1.32
2022-09-23T12:13:06.439Z,1.70
2022-09-23T12:16:01.804Z,1.87
2022-09-23T12:18:51.944Z,1.62
2022-09-23T12:21:51.467Z,1.50
2022-09-23T12:24:35.849Z,1.20
2022-09-23T12:27:10.375Z,1.60
2022-09-23T12:29:40.617Z,1.50
2022-09-23T12:32:12.830Z,1.62
2022-09-23T12:34:47.565Z,1.40
2022-09-23T12:37:37.641Z,1.40
2022-09-23T12:40:24.766Z,1.70
2022-09-23T12:42:54.253Z,1.70
2022-09-23T12:45:34.527Z,1.62
2022-09-23T12:48:26.403Z,1.40
2022-09-23T12:51:13.070Z,1.40
2022-09-23T12:54:23.059Z,1.40
2022-09-23T12:56:57.453Z,1.50
2022-09-23T12:59:29.656Z,1.07
2022-09-23T13:02:00.468Z,1.07
2022-09-23T13:05:07.415Z,1.60
2022-09-23T13:07:43.383Z,1.47
2022-09-23T13:10:35.355Z,1.27
2022-09-23T13:13:06.310Z,1.32
2022-09-23T13:15:36.821Z,1.80
2022-09-23T13:18:25.960Z,1.57
2022-09-23T13:20:56.530Z,1.47
2022-09-23T13:23:27.125Z,3.02
2022-09-23T13:26:01.558Z,1.90
2022-09-23T13:28:52.979Z,1.82
2022-09-23T13:31:22.534Z,2.30
2022-09-23T13:33:55.131Z,2.77
2022-09-23T13:36:24.188Z,2.15
2022-09-23T13:38:54.271Z,2.30
2022-09-23T13:41:26.052Z,1.70
2022-09-23T13:43:59.284Z,2.08
2022-09-23T13:46:30.541Z,1.50
2022-09-23T13:48:59.323Z,1.80
2022-09-23T13:51:31.537Z,1.95
2022-09-23T13:54:04.249Z,2.40
2022-09-23T13:56:37.354Z,2.20
2022-09-23T13:59:27.657Z,1.90
2022-09-23T14:02:15.104Z,2.60
2022-09-23T14:07:15.631Z,4.42
2022-09-23T14:09:47.896Z,4.62
2022-09-23T14:12:20.277Z,4.85
2022-09-23T14:14:51.402Z,3.58
2022-09-23T14:17:22.604Z,2.75
2022-09-23T14:19:51.999Z,3.08
2022-09-23T14:22:26.179Z,2.70
2022-09-23T14:24:55.827Z,3.77
2022-09-23T14:27:36.155Z,2.70
2022-09-23T14:30:05.757Z,3.92
2022-09-23T14:32:35.529Z,3.50
2022-09-23T14:35:09.833Z,2.67
2022-09-23T14:37:49.772Z,2.90
2022-09-23T14:40:30.344Z,2.25
2022-09-23T14:43:26.965Z,2.60
2022-09-23T14:45:59.759Z,2.40
2022-09-23T14:48:33.897Z,2.10
2022-09-23T14:51:07.573Z,2.17
2022-09-23T14:53:45.297Z,2.05
2022-09-23T14:56:19.206Z,2.08
2022-09-23T14:59:00.576Z,2.08
2022-09-23T15:01:37.696Z,2.45
2022-09-23T15:04:23.597Z,2.45
2022-09-23T15:07:06.122Z,2.58
2022-09-23T15:09:41.805Z,2.77
2022-09-23T15:12:20.480Z,3.60
2022-09-23T15:14:51.514Z,3.02
2022-09-23T15:17:37.190Z,2.90
2022-09-23T15:20:13.093Z,2.80
2022-09-23T15:22:48.235Z,3.20
2022-09-23T15:25:29.963Z,3.08
2022-09-23T15:28:02.799Z,2.67
2022-09-23T15:30:31.954Z,3.05
2022-09-23T15:33:01.185Z,3.27
2022-09-23T15:35:31.714Z,3.75
2022-09-23T15:38:01.864Z,4.40
2022-09-23T15:40:33.981Z,14.73
2022-09-23T15:43:20.180Z,13.00
2022-09-23T15:45:55.437Z,9.68
2022-09-23T15:48:31.442Z,6.37
2022-09-23T15:51:04.503Z,4.47
2022-09-23T15:53:33.747Z,2.80
2022-09-23T15:56:04.032Z,3.00
2022-09-23T15:58:34.973Z,2.83
2022-09-23T16:01:04.853Z,3.30
2022-09-23T16:03:34.123Z,2.72
2022-09-23T16:06:04.190Z,2.50
2022-09-23T16:08:33.508Z,2.60
2022-09-23T16:11:05.767Z,3.33
2022-09-23T16:13:34.498Z,2.42
2022-09-23T16:16:03.957Z,2.72
2022-09-23T16:18:33.069Z,3.20
2022-09-23T16:21:09.433Z,2.95
2022-09-23T16:23:38.400Z,2.90
2022-09-23T16:26:17.260Z,3.00
2022-09-23T16:28:48.520Z,2.27
2022-09-23T16:31:17.901Z,2.47
2022-09-23T16:33:47.747Z,2.58
2022-09-23T16:36:31.139Z,2.70
2022-09-23T16:39:03.129Z,2.98
2022-09-23T16:41:33.081Z,2.87
2022-09-23T16:44:04.611Z,5.00
2022-09-23T16:46:34.272Z,4.05
2022-09-23T16:49:03.231Z,4.30
2022-09-23T16:51:35.524Z,3.90
2022-09-23T16:54:11.010Z,3.80
2022-09-23T16:56:46.010Z,4.45
2022-09-23T16:59:15.493Z,4.47
2022-09-23T17:02:02.854Z,3.98
2022-09-23T17:04:32.659Z,4.80
2022-09-23T17:07:02.363Z,3.40
2022-09-23T17:09:33.562Z,3.95
2022-09-23T17:12:21.545Z,3.85
2022-09-23T17:14:52.228Z,3.92
2022-09-23T17:17:23.173Z,4.00
2022-09-23T17:19:54.548Z,3.77
2022-09-23T17:22:24.129Z,3.85
2022-09-23T17:24:53.118Z,4.47
2022-09-23T17:27:24.632Z,4.05
2022-09-23T17:29:54.442Z,3.95
2022-09-23T17:32:23.388Z,3.55
2022-09-23T17:34:52.882Z,4.00
2022-09-23T17:37:22.780Z,4.85
2022-09-23T17:39:53.473Z,4.47
2022-09-23T17:42:22.289Z,4.30
2022-09-23T17:44:50.945Z,4.20
2022-09-23T17:47:20.344Z,3.75
2022-09-23T17:49:49.535Z,3.87
2022-09-23T17:52:19.231Z,4.30
2022-09-23T17:54:48.159Z,4.95
2022-09-23T17:57:16.908Z,4.30
2022-09-23T17:59:45.620Z,4.70
2022-09-23T18:02:15.809Z,4.17
2022-09-23T18:04:44.852Z,4.20
2022-09-23T18:07:13.616Z,3.98
2022-09-23T18:09:42.508Z,4.90
2022-09-23T18:12:11.569Z,4.40
2022-09-23T18:14:42.224Z,4.33
2022-09-23T18:17:12.102Z,4.05
2022-09-23T18:19:41.075Z,4.55
2022-09-23T18:22:10.446Z,4.83
2022-09-23T18:24:40.920Z,4.28
2022-09-23T18:27:10.533Z,4.65
2022-09-23T18:29:39.981Z,4.10
2022-09-23T18:32:14.222Z,3.77
2022-09-23T18:34:43.360Z,3.85
2022-09-23T18:37:16.105Z,3.72
2022-09-23T18:39:43.261Z,4.20
2022-09-23T18:42:13.029Z,3.40
2022-09-23T18:44:42.935Z,3.05
2022-09-23T18:47:14.466Z,3.17
2022-09-23T18:50:01.877Z,3.08
2022-09-23T18:52:31.339Z,2.80
2022-09-23T18:55:01.211Z,3.30
2022-09-23T18:57:30.388Z,3.27
2022-09-23T19:00:00.139Z,3.50
2022-09-23T19:02:29.104Z,3.12
2022-09-23T19:04:57.988Z,3.50
2022-09-23T19:07:26.579Z,3.17
2022-09-23T19:09:56.100Z,3.72
2022-09-23T19:12:25.271Z,3.98
2022-09-23T19:14:55.592Z,3.72
2022-09-23T19:17:24.528Z,3.55
2022-09-23T19:19:55.418Z,3.20
2022-09-23T19:22:24.243Z,3.37
2022-09-23T19:24:53.025Z,2.90
2022-09-23T19:27:23.145Z,2.92
2022-09-23T19:30:05.717Z,3.27
2022-09-23T19:32:35.685Z,3.22
2022-09-23T19:35:06.766Z,2.80
2022-09-23T19:37:35.566Z,3.42
2022-09-23T19:40:06.143Z,2.83
2022-09-23T19:42:38.519Z,2.98
2022-09-23T19:45:08.138Z,2.80
2022-09-23T19:47:38.101Z,3.00
2022-09-23T19:50:09.000Z,3.00
2022-09-23T19:52:38.431Z,3.17
2022-09-23T19:55:10.137Z,2.72
2022-09-23T19:57:42.072Z,3.20
2022-09-23T20:00:15.204Z,3.85
2022-09-23T20:02:44.134Z,3.27
2022-09-23T20:05:13.846Z,2.77
2022-09-23T20:07:43.418Z,3.37
2022-09-23T20:10:13.297Z,3.10
2022-09-23T20:12:42.679Z,3.15
2022-09-23T20:15:11.724Z,2.70
2022-09-23T20:17:41.298Z,2.50
2022-09-23T20:20:11.309Z,2.60
2022-09-23T20:22:40.192Z,2.33
2022-09-23T20:25:12.314Z,2.33
2022-09-23T20:27:41.644Z,2.58
2022-09-23T20:30:11.550Z,2.87
2022-09-23T20:32:44.480Z,2.50
2022-09-23T20:35:11.247Z,2.47
2022-09-23T20:37:40.720Z,2.40
2022-09-23T20:40:11.020Z,2.95
2022-09-23T20:42:42.380Z,2.70
2022-09-23T20:45:11.986Z,2.77
2022-09-23T20:47:42.711Z,2.75
2022-09-23T20:50:12.462Z,3.00
2022-09-23T20:52:41.826Z,2.65
2022-09-23T20:55:10.525Z,3.10
2022-09-23T20:57:40.911Z,2.33
2022-09-23T21:00:11.767Z,2.70
2022-09-23T21:02:42.242Z,2.52
2022-09-23T21:05:11.059Z,2.65
2022-09-23T21:07:39.860Z,3.00
2022-09-23T21:10:09.773Z,2.70
2022-09-23T21:12:38.662Z,2.87
2022-09-23T21:15:09.218Z,2.65
2022-09-23T21:17:39.261Z,2.52
2022-09-23T21:20:09.264Z,2.75
2022-09-23T21:22:39.946Z,3.12
2022-09-23T21:25:27.410Z,2.95
2022-09-23T21:27:41.712Z,2.90
2022-09-23T21:30:12.560Z,3.10
2022-09-23T21:32:41.994Z,3.10
2022-09-23T21:35:10.628Z,3.00
2022-09-23T21:37:40.002Z,3.10
2022-09-23T21:40:29.123Z,2.85
2022-09-23T21:43:00.856Z,3.02
2022-09-23T21:45:31.534Z,2.95
2022-09-23T21:48:00.837Z,2.98
2022-09-23T21:50:29.627Z,2.98
2022-09-23T21:53:00.841Z,3.40
2022-09-23T21:55:30.364Z,3.10
2022-09-23T21:57:59.091Z,3.20
2022-09-23T22:00:27.954Z,3.22
2022-09-23T22:02:57.794Z,3.10
2022-09-23T22:05:27.105Z,3.05
2022-09-23T22:07:56.048Z,3.60
2022-09-23T22:10:27.055Z,3.40
2022-09-23T22:12:58.618Z,3.30
2022-09-23T22:15:28.131Z,3.27
2022-09-23T22:17:58.300Z,3.50
2022-09-23T22:20:28.916Z,3.30
2022-09-23T22:22:57.707Z,3.50
2022-09-23T22:25:26.930Z,3.20
2022-09-23T22:28:13.981Z,3.33
2022-09-23T22:31:01.486Z,2.83
2022-09-23T22:33:30.685Z,3.37
2022-09-23T22:36:03.481Z,3.30
2022-09-23T22:38:35.401Z,3.70
2022-09-23T22:41:05.146Z,3.58
2022-09-23T22:43:34.436Z,3.47
2022-09-23T22:46:05.287Z,3.95
2022-09-23T22:48:34.577Z,3.80
2022-09-23T22:51:05.558Z,3.58
2022-09-23T22:53:34.911Z,3.60
2022-09-23T22:56:05.607Z,3.62
2022-09-23T22:58:34.785Z,3.65
2022-09-23T23:01:03.939Z,3.92
2022-09-23T23:03:35.251Z,4.50
2022-09-23T23:06:04.558Z,4.20
2022-09-23T23:08:35.130Z,3.90
2022-09-23T23:11:09.574Z,3.90
2022-09-23T23:13:41.657Z,4.50
2022-09-23T23:16:12.046Z,4.47
2022-09-23T23:18:43.129Z,4.10
2022-09-23T23:21:15.452Z,4.05
2022-09-23T23:23:51.670Z,3.83
2022-09-23T23:26:25.821Z,4.15
2022-09-23T23:28:54.875Z,4.42
2022-09-23T23:31:26.765Z,5.08
2022-09-23T23:33:56.980Z,3.55
2022-09-23T23:36:25.848Z,4.12
2022-09-23T23:38:54.554Z,4.15
2022-09-23T23:41:23.389Z,4.20
2022-09-23T23:43:57.933Z,3.95
2022-09-23T23:46:28.082Z,3.92
2022-09-23T23:48:57.100Z,4.08
2022-09-23T23:51:29.514Z,4.00
2022-09-23T23:53:58.631Z,4.37
2022-09-23T23:56:27.235Z,4.00
2022-09-23T23:58:59.483Z,3.72
